Time;durP1;ratioP1;P1;durP2;ratioP2;P2;SDS_P1;SDS_P2;PMS_P1;PMS_P2;Temp;Humidity;BMP_temperature;BMP_pressure;BME280_temperature;BME280_humidity;BME280_pressure;Samples;Min_cycle;Max_cycle;Signal;HPM_P1;HPM_P2
2022/06/29 00:01:23;;;;;;;2.03;1.10;;;;;;;24.49;48.70;99449.88;4939925;29;20028;-88
2022/06/29 00:04:01;;;;;;;2.05;1.20;;;;;;;24.49;48.80;99449.00;4940372;29;20023;-87
2022/06/29 00:06:27;;;;;;;2.00;1.10;;;;;;;24.48;48.88;99447.31;4941005;29;20095;-89
2022/06/29 00:08:55;;;;;;;2.47;1.20;;;;;;;24.46;48.80;99439.41;4955929;29;20059;-87
2022/06/29 00:11:22;;;;;;;2.60;1.00;;;;;;;24.45;49.03;99447.56;4940146;29;20027;-86
2022/06/29 00:13:48;;;;;;;2.45;1.20;;;;;;;24.44;48.65;99443.19;4940150;29;20063;-89
2022/06/29 00:16:15;;;;;;;1.95;1.10;;;;;;;24.44;48.66;99435.19;4956564;29;20039;-87
2022/06/29 00:18:41;;;;;;;1.77;1.00;;;;;;;24.43;48.91;99446.81;4924489;29;20035;-87
2022/06/29 00:21:07;;;;;;;2.85;1.30;;;;;;;24.42;48.98;99442.44;4924222;29;20091;-87
2022/06/29 00:23:34;;;;;;;2.75;1.13;;;;;;;24.40;48.59;99434.56;4940667;29;20032;-88
2022/06/29 00:26:00;;;;;;;2.53;1.20;;;;;;;24.39;48.89;99428.38;4941403;29;20062;-87
2022/06/29 00:28:26;;;;;;;2.03;1.23;;;;;;;24.38;48.86;99432.03;4939794;29;20063;-88
2022/06/29 00:30:55;;;;;;;1.42;0.98;;;;;;;24.37;48.88;99429.47;4939019;29;20060;-88
2022/06/29 00:33:21;;;;;;;2.15;1.17;;;;;;;24.36;48.77;99425.94;4923164;29;20050;-88
2022/06/29 00:35:47;;;;;;;2.15;1.25;;;;;;;24.34;49.03;99422.56;4924014;29;20401;-88
2022/06/29 00:38:14;;;;;;;2.58;1.30;;;;;;;24.35;48.66;99418.91;4939328;29;20016;-88
2022/06/29 00:40:41;;;;;;;2.10;1.40;;;;;;;24.35;49.18;99420.75;4939728;29;20087;-87
2022/06/29 00:43:07;;;;;;;2.28;1.27;;;;;;;24.32;49.05;99421.81;4939481;29;20020;-87
2022/06/29 00:45:33;;;;;;;2.95;1.30;;;;;;;24.31;48.82;99422.78;4922989;29;20069;-89
2022/06/29 00:47:59;;;;;;;3.17;1.45;;;;;;;24.30;49.26;99415.75;4939582;29;20032;-89
2022/06/29 00:50:29;;;;;;;2.80;1.45;;;;;;;24.31;48.87;99409.44;4924777;29;20040;-88
2022/06/29 00:53:04;;;;;;;3.35;1.45;;;;;;;24.29;49.14;99406.03;4922955;29;20051;-89
2022/06/29 00:55:36;;;;;;;2.30;1.23;;;;;;;24.27;49.38;99408.81;4924213;29;20032;-88
2022/06/29 00:58:05;;;;;;;2.70;1.50;;;;;;;24.27;48.99;99402.66;4936737;29;20042;-90
2022/06/29 01:00:32;;;;;;;3.67;1.80;;;;;;;24.25;49.07;99393.91;4924343;29;20480;-88
2022/06/29 01:03:00;;;;;;;3.05;1.35;;;;;;;24.26;49.37;99395.63;4938096;29;20023;-86
2022/06/29 01:05:28;;;;;;;3.15;1.60;;;;;;;24.24;49.09;99397.53;4937933;29;20023;-87
2022/06/29 01:07:54;;;;;;;2.53;1.35;;;;;;;24.23;49.03;99401.19;4937150;29;20035;-87
2022/06/29 01:10:20;;;;;;;2.28;1.38;;;;;;;24.22;49.17;99402.16;4936648;29;20028;-88
2022/06/29 01:12:53;;;;;;;2.97;1.65;;;;;;;24.21;49.27;99403.97;4906808;29;20047;-86
2022/06/29 01:15:20;;;;;;;2.90;1.60;;;;;;;24.20;49.16;99401.41;4936464;29;20012;-88
2022/06/29 01:17:46;;;;;;;3.15;1.48;;;;;;;24.19;49.12;99395.25;4921393;29;20126;-89
2022/06/29 01:20:18;;;;;;;2.75;1.42;;;;;;;24.19;49.00;99400.56;4922206;29;20039;-88
2022/06/29 01:22:47;;;;;;;3.05;1.65;;;;;;;24.19;49.37;99389.03;4937195;29;20032;-87
2022/06/29 01:25:21;;;;;;;3.58;1.90;;;;;;;24.18;49.42;99382.00;4921592;29;20032;-89
2022/06/29 01:27:48;;;;;;;2.42;1.40;;;;;;;24.15;48.96;99383.09;4937573;29;20486;-90
2022/06/29 01:30:14;;;;;;;2.85;1.40;;;;;;;24.15;49.40;99382.25;4938850;29;20028;-87
2022/06/29 01:32:40;;;;;;;3.22;1.50;;;;;;;24.13;49.02;99380.53;4938026;29;20123;-87
2022/06/29 01:35:23;;;;;;;2.80;1.60;;;;;;;24.13;48.93;99369.88;4954999;29;20016;-89
2022/06/29 01:37:52;;;;;;;2.20;1.48;;;;;;;24.13;48.83;99374.38;4938318;29;20050;-89
2022/06/29 01:40:43;;;;;;;3.80;1.50;;;;;;;24.11;49.15;99371.81;4937159;29;20099;-88
2022/06/29 01:43:10;;;;;;;2.47;1.45;;;;;;;24.11;49.08;99366.50;4921254;29;20036;-89
2022/06/29 01:45:35;;;;;;;2.08;1.30;;;;;;;24.10;49.30;99361.25;4937895;29;20019;-89
2022/06/29 01:48:04;;;;;;;2.83;1.58;;;;;;;24.09;48.97;99362.25;4938626;29;20038;-90
2022/06/29 01:50:30;;;;;;;2.88;1.52;;;;;;;24.07;49.38;99362.34;4924340;29;20063;-91
2022/06/29 01:52:58;;;;;;;2.58;1.55;;;;;;;24.07;49.33;99359.69;4938229;29;20028;-90
2022/06/29 01:55:24;;;;;;;2.83;1.40;;;;;;;24.05;49.40;99364.25;4909110;29;20039;-87
2022/06/29 01:57:50;;;;;;;3.50;1.77;;;;;;;24.04;49.35;99364.38;4938563;29;20028;-86
2022/06/29 02:00:16;;;;;;;2.83;1.83;;;;;;;24.02;49.33;99361.81;4922933;29;20035;-89
2022/06/29 02:02:42;;;;;;;3.35;1.70;;;;;;;24.04;49.28;99359.91;4923776;29;20035;-88
2022/06/29 02:05:09;;;;;;;3.72;1.65;;;;;;;24.04;49.26;99365.22;4927729;29;20027;-88
2022/06/29 02:07:35;;;;;;;4.35;1.83;;;;;;;24.03;49.25;99363.53;4941620;29;20027;-88
2022/06/29 02:10:01;;;;;;;3.78;1.75;;;;;;;24.02;49.32;99355.66;4941788;29;20030;-86
2022/06/29 02:12:27;;;;;;;2.40;1.50;;;;;;;24.00;49.19;99353.09;4940777;29;20035;-86
2022/06/29 02:14:53;;;;;;;3.70;1.67;;;;;;;24.01;49.09;99354.78;4939403;29;20022;-88
2022/06/29 02:17:19;;;;;;;3.78;1.75;;;;;;;23.98;49.30;99355.88;4940426;29;20032;-87
2022/06/29 02:19:45;;;;;;;2.88;1.48;;;;;;;23.95;49.15;99344.59;4939544;29;20050;-87
2022/06/29 02:22:15;;;;;;;3.97;1.65;;;;;;;23.95;49.23;99355.25;4937783;29;20043;-86
2022/06/29 02:24:41;;;;;;;2.88;1.80;;;;;;;23.93;49.09;99352.72;4924116;29;20028;-88
2022/06/29 02:27:07;;;;;;;2.67;1.45;;;;;;;23.91;49.22;99343.16;4939349;29;20046;-88
2022/06/29 02:29:33;;;;;;;3.15;1.75;;;;;;;23.92;49.34;99350.16;4941421;29;20047;-87
2022/06/29 02:34:43;;;;;;;2.42;1.63;;;;;;;23.89;49.43;99339.72;4956358;29;20087;-88
2022/06/29 02:37:10;;;;;;;2.90;1.70;;;;;;;23.87;49.04;99330.03;4940984;29;20028;-87
2022/06/29 02:39:39;;;;;;;3.22;1.60;;;;;;;23.86;49.27;99336.34;4941856;29;20035;-88
2022/06/29 02:42:05;;;;;;;3.45;1.60;;;;;;;23.86;49.21;99324.81;4940547;29;20028;-88
2022/06/29 02:44:31;;;;;;;2.92;1.70;;;;;;;23.84;49.20;99327.63;4940017;29;20036;-87
2022/06/29 02:46:57;;;;;;;3.33;1.70;;;;;;;23.83;49.22;99323.25;4939445;29;20036;-86
2022/06/29 02:49:23;;;;;;;2.65;1.50;;;;;;;23.83;49.00;99331.22;4923445;29;20063;-88
2022/06/29 02:51:49;;;;;;;2.83;1.52;;;;;;;23.83;49.21;99331.22;4940103;29;20031;-88
2022/06/29 02:54:17;;;;;;;3.20;1.63;;;;;;;23.81;49.33;99325.19;4939780;29;20063;-89
2022/06/29 02:56:43;;;;;;;3.15;1.80;;;;;;;23.79;49.24;99327.13;4941348;29;20031;-88
2022/06/29 02:59:09;;;;;;;3.25;1.67;;;;;;;23.77;49.38;99326.38;4940865;29;20074;-87
2022/06/29 03:01:35;;;;;;;2.58;1.50;;;;;;;23.76;49.55;99327.34;4941280;29;20028;-88
2022/06/29 03:04:01;;;;;;;1.67;1.30;;;;;;;23.74;49.40;99331.94;4942469;29;20039;-88
2022/06/29 03:06:27;;;;;;;3.17;1.52;;;;;;;23.74;49.25;99331.94;4941734;29;20090;-88
2022/06/29 03:08:53;;;;;;;3.08;1.58;;;;;;;23.72;49.29;99334.72;4939486;29;20161;-89
2022/06/29 03:11:20;;;;;;;3.10;1.55;;;;;;;23.70;49.41;99339.31;4941862;29;20031;-89
2022/06/29 03:13:46;;;;;;;4.00;1.80;;;;;;;23.70;49.36;99343.78;4937039;29;20027;-87
2022/06/29 03:16:12;;;;;;;2.95;1.50;;;;;;;23.70;49.16;99341.97;4939857;29;20024;-89
2022/06/29 03:18:38;;;;;;;4.10;1.85;;;;;;;23.69;49.08;99340.25;4938881;29;20036;-88
2022/06/29 03:21:03;;;;;;;2.95;1.60;;;;;;;23.67;49.55;99339.53;4938857;29;20043;-88
2022/06/29 03:23:30;;;;;;;2.83;1.63;;;;;;;23.69;49.30;99345.56;4940116;29;20023;-87
2022/06/29 03:25:56;;;;;;;2.30;1.33;;;;;;;23.68;49.37;99343.06;4923542;29;20032;-86
2022/06/29 03:28:28;;;;;;;2.55;1.33;;;;;;;23.66;49.33;99343.16;4939416;29;20447;-88
2022/06/29 03:30:59;;;;;;;2.95;1.73;;;;;;;23.67;49.37;99341.34;4923361;29;20042;-88
2022/06/29 03:33:25;;;;;;;3.17;1.75;;;;;;;23.66;49.59;99336.97;4938956;29;20066;-88
2022/06/29 03:35:51;;;;;;;3.60;1.80;;;;;;;23.65;49.32;99343.25;4939610;29;20023;-89
2022/06/29 03:38:30;;;;;;;2.38;1.40;;;;;;;23.64;49.22;99339.78;4939034;29;20027;-89
2022/06/29 03:40:57;;;;;;;2.88;1.52;;;;;;;23.63;49.27;99345.19;4939303;29;20031;-88
2022/06/29 03:43:23;;;;;;;2.67;1.58;;;;;;;23.62;49.54;99335.53;4938873;29;20023;-88
2022/06/29 03:45:52;;;;;;;3.35;1.60;;;;;;;23.59;49.33;99345.41;4939738;29;20035;-87
2022/06/29 03:48:18;;;;;;;2.40;1.50;;;;;;;23.60;49.42;99335.63;4940999;29;20132;-89
2022/06/29 03:50:44;;;;;;;3.10;1.67;;;;;;;23.58;49.34;99342.88;4939250;29;20035;-89
2022/06/29 03:53:10;;;;;;;2.80;1.60;;;;;;;23.58;49.35;99340.22;4941314;29;20099;-89
2022/06/29 03:55:39;;;;;;;2.65;1.50;;;;;;;23.55;49.26;99341.31;4923567;29;20031;-89
2022/06/29 03:58:05;;;;;;;3.40;1.67;;;;;;;23.53;49.29;99335.22;4940240;29;20028;-89
2022/06/29 04:00:31;;;;;;;2.97;1.60;;;;;;;23.52;49.51;99338.00;4939406;29;20423;-89
2022/06/29 04:02:57;;;;;;;3.03;1.50;;;;;;;23.51;49.55;99336.28;4941999;29;20473;-89
2022/06/29 04:05:23;;;;;;;3.25;1.65;;;;;;;23.50;49.61;99334.59;4925235;29;20010;-90
2022/06/29 04:07:49;;;;;;;2.28;1.20;;;;;;;23.48;49.40;99336.53;4925861;29;20040;-89
2022/06/29 04:10:14;;;;;;;2.05;1.40;;;;;;;23.46;49.32;99326.00;4942573;29;20055;-90
2022/06/29 04:12:41;;;;;;;4.70;1.85;;;;;;;23.47;49.38;99335.69;4957163;29;20047;-90
2022/06/29 04:15:08;;;;;;;2.85;1.40;;;;;;;23.45;49.67;99326.97;4940991;29;20008;-91
2022/06/29 04:17:39;;;;;;;4.10;1.60;;;;;;;23.44;49.45;99319.94;4941008;29;20063;-89
2022/06/29 04:21:05;;;;;;;2.95;1.50;;;;;;;23.42;49.60;99316.53;4957619;29;20090;-88
2022/06/29 04:23:01;;;;;;;2.40;1.63;;;;;;;23.45;49.48;99324.28;4957192;29;20028;-86
2022/06/29 04:25:27;;;;;;;2.88;1.40;;;;;;;23.43;49.46;99323.53;4939878;29;20038;-87
2022/06/29 04:28:06;;;;;;;3.17;1.45;;;;;;;23.43;49.40;99323.53;4924221;29;20021;-87
2022/06/29 04:30:36;;;;;;;1.90;1.17;;;;;;;23.41;49.41;99325.47;4941619;29;20097;-89
2022/06/29 04:33:10;;;;;;;3.28;1.60;;;;;;;23.42;49.47;99321.84;4958986;28;20059;-87
2022/06/29 04:35:45;;;;;;;2.42;1.25;;;;;;;23.39;49.13;99325.59;4939604;29;20028;-88
2022/06/29 04:38:21;;;;;;;2.60;1.40;;;;;;;23.41;49.40;99317.50;4909180;29;20091;-88
2022/06/29 04:40:47;;;;;;;2.72;1.52;;;;;;;23.39;49.26;99317.59;4925235;29;20063;-87
2022/06/29 04:43:12;;;;;;;3.55;1.60;;;;;;;23.38;49.28;99320.41;4941381;29;20450;-87
2022/06/29 04:48:55;;;;;;;2.88;1.52;;;;;;;23.38;49.51;99325.72;4944296;29;20083;-90
2022/06/29 04:51:32;;;;;;;3.20;1.50;;;;;;;23.37;49.41;99331.97;4940326;29;20031;-89
2022/06/29 04:54:12;;;;;;;1.90;1.15;;;;;;;23.37;49.76;99324.84;4958394;29;20071;-88
2022/06/29 04:56:44;;;;;;;3.30;1.38;;;;;;;23.37;49.29;99332.84;4926640;29;20048;-89
2022/06/29 04:59:15;;;;;;;2.60;1.50;;;;;;;23.37;49.38;99330.19;4943372;29;20043;-88
2022/06/29 05:01:52;;;;;;;2.60;1.45;;;;;;;23.37;49.70;99324.84;4941604;29;20011;-89
2022/06/29 05:04:19;;;;;;;2.70;1.33;;;;;;;23.36;49.60;99327.63;4927662;29;20095;-88
2022/06/29 05:06:46;;;;;;;2.33;1.17;;;;;;;23.36;49.55;99330.28;4957451;29;20083;-87
2022/06/29 05:09:12;;;;;;;2.58;1.50;;;;;;;23.36;49.62;99324.97;4923996;29;20109;-87
2022/06/29 05:11:41;;;;;;;2.95;1.48;;;;;;;23.37;49.57;99329.31;4924601;29;20043;-87
2022/06/29 05:14:09;;;;;;;3.15;1.40;;;;;;;23.38;49.54;99331.03;4925537;29;20018;-88
2022/06/29 05:16:35;;;;;;;2.78;1.45;;;;;;;23.38;49.62;99331.03;4941721;29;20032;-88
2022/06/29 05:19:01;;;;;;;3.92;1.40;;;;;;;23.38;49.66;99336.38;4940853;29;20036;-87
2022/06/29 05:21:30;;;;;;;3.15;1.60;;;;;;;23.37;49.61;99329.31;4940041;29;20035;-86
2022/06/29 05:23:57;;;;;;;2.83;1.30;;;;;;;23.38;49.75;99336.38;4941068;29;20034;-88
2022/06/29 05:26:24;;;;;;;2.65;1.45;;;;;;;23.37;49.57;99335.50;4941688;29;20492;-87
2022/06/29 05:28:51;;;;;;;3.00;1.45;;;;;;;23.37;49.62;99334.63;4940905;29;20070;-87
2022/06/29 05:31:17;;;;;;;4.13;1.48;;;;;;;23.37;49.70;99329.31;4940926;29;20051;-89
2022/06/29 05:33:44;;;;;;;2.38;1.30;;;;;;;23.36;49.84;99333.81;4941028;29;20047;-89
2022/06/29 05:36:30;;;;;;;1.95;1.15;;;;;;;23.39;49.53;99332.75;4925141;29;20027;-87
2022/06/29 05:38:57;;;;;;;;;;;;;;;23.40;49.69;99334.44;4928752;29;20071;-88
2022/06/29 05:41:23;;;;;;;;;;;;;;;23.39;49.67;99327.41;4946322;29;20297;-86
2022/06/29 05:43:51;;;;;;;3.60;1.47;;;;;;;23.41;49.66;99325.47;4944452;29;19921;-87
2022/06/29 05:46:25;;;;;;;2.28;1.38;;;;;;;23.38;49.53;99321.22;4944793;29;20064;-87
2022/06/29 05:49:18;;;;;;;2.50;1.30;;;;;;;23.40;49.52;99329.09;4929247;29;20040;-87
2022/06/29 05:52:30;;;;;;;4.28;1.52;;;;;;;23.39;49.82;99327.41;4946145;28;20039;-87
2022/06/29 05:54:58;;;;;;;2.60;1.40;;;;;;;23.41;49.70;99330.81;4961885;29;20107;-87
2022/06/29 05:57:29;;;;;;;3.65;1.48;;;;;;;23.41;49.77;99326.34;4944309;29;20035;-88
2022/06/29 05:59:57;;;;;;;3.20;1.40;;;;;;;23.40;49.87;99323.78;4945425;29;20031;-87
2022/06/29 06:02:23;;;;;;;3.22;1.63;;;;;;;23.41;49.65;99322.81;4945862;28;20063;-89
2022/06/29 06:04:49;;;;;;;1.95;1.27;;;;;;;23.41;49.54;99315.69;4945032;29;20075;-88
2022/06/29 06:07:15;;;;;;;2.20;1.38;;;;;;;23.43;49.73;99324.41;4944686;29;20039;-88
2022/06/29 06:09:42;;;;;;;2.92;2.05;;;;;;;23.44;49.56;99325.25;4928840;29;20035;-88
2022/06/29 06:12:09;;;;;;;3.10;1.40;;;;;;;23.45;49.61;99324.28;4944966;28;20478;-89
2022/06/29 06:14:48;;;;;;;3.50;1.60;;;;;;;23.46;49.78;99320.66;4944109;29;20043;-88
2022/06/29 06:17:14;;;;;;;2.72;1.70;;;;;;;23.45;49.62;99333.13;4929529;29;20032;-88
2022/06/29 06:19:40;;;;;;;2.60;1.50;;;;;;;23.49;49.43;99338.22;4945648;29;20018;-88
2022/06/29 06:22:06;;;;;;;3.65;1.25;;;;;;;23.50;50.01;99334.59;4945446;29;20027;-89
2022/06/29 06:24:33;;;;;;;3.60;1.35;;;;;;;23.49;49.68;99333.78;4960893;29;20015;-90
2022/06/29 06:26:59;;;;;;;3.15;1.40;;;;;;;23.51;49.53;99341.63;4913528;29;20546;-90
2022/06/29 06:29:25;;;;;;;3.20;1.50;;;;;;;23.52;49.58;99340.66;4928033;29;20493;-89
2022/06/29 06:31:51;;;;;;;2.67;1.45;;;;;;;23.52;49.77;99336.19;4943684;29;20031;-90
2022/06/29 06:34:16;;;;;;;3.63;1.38;;;;;;;23.55;49.90;99338.63;4944923;28;20020;-90
2022/06/29 06:36:44;;;;;;;4.30;1.67;;;;;;;23.54;49.84;99344.91;4961933;29;20018;-90
2022/06/29 06:39:11;;;;;;;3.35;1.70;;;;;;;23.57;49.94;99347.34;4944249;28;20020;-90
2022/06/29 06:41:37;;;;;;;3.45;1.58;;;;;;;23.58;49.99;99353.53;4928954;29;20046;-88
2022/06/29 06:44:03;;;;;;;3.50;1.70;;;;;;;23.55;49.76;99351.97;4944647;29;20035;-87
2022/06/29 06:46:29;;;;;;;2.33;1.17;;;;;;;23.58;50.06;99358.88;4943120;29;20083;-88
2022/06/29 06:48:54;;;;;;;2.47;1.48;;;;;;;23.58;49.94;99349.06;4926418;29;20043;-87
2022/06/29 06:51:22;;;;;;;2.60;1.50;;;;;;;23.59;49.98;99353.41;4943432;29;20034;-88
2022/06/29 06:53:49;;;;;;;3.75;1.70;;;;;;;23.62;49.93;99354.16;4943414;29;20066;-87
2022/06/29 06:56:15;;;;;;;3.15;1.52;;;;;;;23.62;49.85;99349.66;4942675;29;20024;-88
2022/06/29 06:58:43;;;;;;;2.63;1.38;;;;;;;23.62;49.93;99354.16;4959933;29;20023;-87
2022/06/29 07:01:10;;;;;;;3.35;1.35;;;;;;;23.63;49.89;99351.38;4942354;29;20023;-87
2022/06/29 07:03:37;;;;;;;2.75;1.50;;;;;;;23.65;49.82;99354.78;4942133;29;20031;-89
2022/06/29 07:06:25;;;;;;;2.78;1.40;;;;;;;23.66;50.00;99352.94;4942561;29;20031;-87
2022/06/29 07:08:54;;;;;;;3.35;1.58;;;;;;;23.67;49.72;99352.00;4943366;29;20023;-88
2022/06/29 07:11:20;;;;;;;3.25;1.70;;;;;;;23.67;49.94;99352.84;4940923;29;20043;-88
2022/06/29 07:13:46;;;;;;;3.60;1.60;;;;;;;23.69;49.71;99350.91;4941302;29;20024;-89
2022/06/29 07:16:13;;;;;;;2.33;1.20;;;;;;;23.69;49.80;99355.41;4939749;29;20024;-87
2022/06/29 07:18:42;;;;;;;2.65;1.45;;;;;;;23.72;49.60;99353.34;4940896;29;20037;-88
2022/06/29 07:21:08;;;;;;;2.95;1.45;;;;;;;23.73;49.72;99351.56;4941101;29;20023;-88
2022/06/29 07:23:34;;;;;;;3.25;1.48;;;;;;;23.74;49.92;99354.09;4941944;29;20047;-88
2022/06/29 07:26:00;;;;;;;3.35;1.58;;;;;;;23.78;49.75;99351.19;4941755;29;20091;-87
2022/06/29 07:28:26;;;;;;;3.22;1.30;;;;;;;23.80;49.76;99351.94;4942185;29;20051;-88
2022/06/29 07:30:51;;;;;;;3.13;1.58;;;;;;;23.81;49.97;99349.16;4925616;29;20028;-88
2022/06/29 07:33:17;;;;;;;4.22;1.55;;;;;;;23.83;49.70;99347.22;4925092;29;20038;-89
2022/06/29 07:35:43;;;;;;;3.97;1.52;;;;;;;23.86;49.43;99351.47;4941010;29;20019;-87
2022/06/29 07:38:10;;;;;;;2.47;1.40;;;;;;;23.86;49.44;99348.81;4940098;29;20098;-88
2022/06/29 07:40:36;;;;;;;4.10;1.70;;;;;;;23.89;49.48;99345.06;4957945;29;20018;-87
2022/06/29 07:43:02;;;;;;;2.92;1.40;;;;;;;23.90;49.48;99346.75;4940829;29;20030;-87
2022/06/29 07:45:28;;;;;;;3.28;1.63;;;;;;;23.90;49.70;99341.41;4938027;29;20027;-87
2022/06/29 07:47:57;;;;;;;3.20;1.55;;;;;;;23.92;49.57;99339.50;4938978;29;20038;-88
2022/06/29 07:50:23;;;;;;;2.40;1.48;;;;;;;23.95;49.54;99331.28;4939743;29;20036;-87
2022/06/29 07:52:48;;;;;;;3.30;1.63;;;;;;;23.96;49.38;99335.63;4938719;29;20059;-88
2022/06/29 07:55:15;;;;;;;2.33;1.20;;;;;;;23.97;49.65;99337.34;4954017;29;20048;-88
2022/06/29 07:57:41;;;;;;;5.05;1.40;;;;;;;24.02;49.42;99339.66;4939059;29;20027;-87
2022/06/29 08:00:07;;;;;;;2.85;1.17;;;;;;;24.04;49.48;99335.91;4937187;29;20032;-86
2022/06/29 08:02:33;;;;;;;3.20;1.38;;;;;;;24.06;49.32;99335.81;4938900;29;20043;-87
2022/06/29 08:05:00;;;;;;;2.88;1.40;;;;;;;24.09;49.26;99331.13;4937472;29;20059;-89
2022/06/29 08:07:26;;;;;;;4.57;1.60;;;;;;;24.11;49.37;99328.31;4939764;29;20039;-88
2022/06/29 08:09:53;;;;;;;3.70;1.70;;;;;;;24.11;49.08;99329.16;4935537;29;20538;-87
2022/06/29 08:12:20;;;;;;;2.60;1.38;;;;;;;24.16;49.16;99333.31;4951068;29;20055;-88
2022/06/29 08:14:47;;;;;;;4.20;1.60;;;;;;;24.18;48.92;99337.56;4948274;29;20019;-88
2022/06/29 08:17:15;;;;;;;3.67;1.63;;;;;;;24.22;49.12;99340.84;4944028;29;20030;-86
2022/06/29 08:19:43;;;;;;;2.72;1.42;;;;;;;24.24;49.08;99336.22;4925369;29;20038;-89
2022/06/29 08:22:10;;;;;;;3.40;1.40;;;;;;;24.28;49.02;99335.03;4925717;29;20039;-86
2022/06/29 08:24:40;;;;;;;5.68;1.90;;;;;;;24.30;48.96;99332.25;4928451;29;20027;-87
2022/06/29 08:27:07;;;;;;;3.30;1.52;;;;;;;24.31;49.19;99318.78;4930891;29;20027;-87
2022/06/29 08:29:33;;;;;;;4.05;1.52;;;;;;;24.35;48.99;99325.59;4948024;29;20027;-88
2022/06/29 08:31:59;;;;;;;2.17;1.17;;;;;;;24.37;48.94;99323.63;4935209;29;20035;-88
2022/06/29 08:34:29;;;;;;;2.95;1.45;;;;;;;24.39;48.75;99318.19;4932396;29;20133;-88
2022/06/29 08:37:02;;;;;;;3.63;1.58;;;;;;;24.40;48.60;99323.41;4942715;28;20011;-89
2022/06/29 08:40:09;;;;;;;3.25;1.38;;;;;;;24.44;48.85;99317.84;4961362;28;20035;-92
2022/06/29 08:42:42;;;;;;;3.08;1.70;;;;;;;24.44;48.56;99320.53;4944474;28;20028;-91
2022/06/29 08:45:11;;;;;;;2.88;1.35;;;;;;;24.48;48.65;99316.63;4930196;28;20024;-92
2022/06/29 08:47:44;;;;;;;2.42;1.40;;;;;;;24.49;48.51;99320.97;4943070;28;20024;-90
2022/06/29 08:50:11;;;;;;;3.50;1.48;;;;;;;24.52;48.77;99320.75;4935594;29;20059;-90
2022/06/29 08:52:39;;;;;;;2.38;1.25;;;;;;;24.54;48.67;99321.47;4932661;29;20422;-90
2022/06/29 08:55:07;;;;;;;3.88;1.58;;;;;;;24.57;48.45;99318.59;4933223;29;20054;-88
2022/06/29 08:57:40;;;;;;;3.30;1.40;;;;;;;24.59;48.18;99311.28;4949874;29;20937;-87
2022/06/29 09:00:07;;;;;;;3.97;1.70;;;;;;;24.62;48.48;99316.41;4930142;29;20031;-88
2022/06/29 09:02:34;;;;;;;3.28;1.27;;;;;;;24.66;48.26;99317.84;4947565;29;20031;-90
2022/06/29 09:04:59;;;;;;;3.95;1.00;;;;;;;24.68;48.29;99309.72;4931151;29;20055;-88
2022/06/29 09:07:26;;;;;;;4.78;1.45;;;;;;;24.71;48.25;99313.97;4933964;29;20046;-87
2022/06/29 09:09:59;;;;;;;3.95;1.67;;;;;;;24.72;48.50;99313.00;4926939;29;20104;-90
2022/06/29 09:12:26;;;;;;;3.35;1.23;;;;;;;24.76;48.35;99306.44;4932492;29;20104;-87
2022/06/29 09:14:52;;;;;;;3.28;1.45;;;;;;;24.77;48.09;99313.47;4929457;29;20085;-85
2022/06/29 09:17:19;;;;;;;3.33;1.65;;;;;;;24.80;48.10;99313.25;4926760;29;20047;-85
2022/06/29 09:19:47;;;;;;;3.95;1.42;;;;;;;24.82;48.12;99311.31;4943415;29;20024;-87
2022/06/29 09:22:13;;;;;;;2.20;1.30;;;;;;;24.86;47.95;99312.78;4936113;29;20077;-87
2022/06/29 09:24:40;;;;;;;3.08;1.60;;;;;;;24.86;47.97;99312.78;4931271;29;20024;-87
2022/06/29 09:27:08;;;;;;;3.15;1.30;;;;;;;24.89;47.71;99312.53;4925898;29;20051;-86
2022/06/29 09:29:36;;;;;;;3.38;1.55;;;;;;;24.91;47.76;99304.41;4924981;29;20039;-87
2022/06/29 09:32:02;;;;;;;3.55;1.40;;;;;;;24.94;47.75;99307.66;4927549;29;20025;-87
2022/06/29 09:34:32;;;;;;;3.17;1.50;;;;;;;24.97;48.15;99303.03;4925874;29;20055;-86
2022/06/29 09:37:00;;;;;;;3.55;1.52;;;;;;;25.01;47.63;99310.69;4930199;29;20039;-87
2022/06/29 09:39:38;;;;;;;3.95;1.23;;;;;;;25.04;47.66;99309.59;4931329;29;20047;-85
2022/06/29 09:42:07;;;;;;;3.83;1.50;;;;;;;25.07;47.84;99315.53;4928048;29;20032;-85
2022/06/29 09:44:51;;;;;;;3.35;1.48;;;;;;;25.09;47.54;99307.41;4923465;29;20373;-87
2022/06/29 09:48:13;;;;;;;4.00;1.55;;;;;;;25.11;47.72;99297.44;4925220;29;20466;-86
2022/06/29 09:51:34;;;;;;;5.22;1.45;;;;;;;25.13;47.66;99298.16;4924369;29;20024;-86
2022/06/29 11:26:13;;;;;;;4.15;1.38;;;;;;;26.11;46.55;99206.41;4939653;29;20059;-87
2022/06/29 11:28:47;;;;;;;3.47;1.17;;;;;;;26.15;46.57;99202.50;4940046;29;20510;-87
2022/06/29 11:32:02;;;;;;;2.08;1.30;;;;;;;26.18;46.42;99196.84;4907266;29;20457;-85
2022/06/29 11:34:28;;;;;;;2.10;1.10;;;;;;;26.20;46.55;99199.41;4937581;29;20040;-84
2022/06/29 11:37:22;;;;;;;2.97;1.50;;;;;;;26.21;46.58;99191.25;4910282;29;20144;-85
2022/06/29 11:39:49;;;;;;;2.33;1.10;;;;;;;26.26;46.66;99196.22;4906212;29;20028;-86
2022/06/29 11:45:53;;;;;;;2.95;1.20;;;;;;;26.32;46.55;99181.44;4920323;29;20043;-84
2022/06/29 11:49:33;;;;;;;2.53;1.10;;;;;;;26.34;46.29;99174.16;4904318;29;20032;-86
2022/06/29 11:51:59;;;;;;;2.25;1.20;;;;;;;26.36;46.48;99174.84;4919792;29;20062;-85
2022/06/29 11:54:49;;;;;;;2.85;1.23;;;;;;;26.39;46.34;99172.75;4906270;29;20038;-85
2022/06/29 12:00:53;;;;;;;3.20;1.23;;;;;;;26.47;46.50;99158.69;4924588;29;20135;-85
2022/06/29 12:03:20;;;;;;;1.95;1.10;;;;;;;26.50;46.25;99157.56;4902513;29;20127;-87
2022/06/29 12:05:59;;;;;;;3.88;1.33;;;;;;;26.53;46.30;99152.78;4903816;29;20043;-85
2022/06/29 12:08:27;;;;;;;4.25;1.50;;;;;;;26.57;45.96;99147.19;4907920;29;20067;-84
2022/06/29 12:10:54;;;;;;;2.33;1.02;;;;;;;26.59;46.24;99150.56;4924699;29;20032;-85
2022/06/29 12:13:22;;;;;;;2.80;1.05;;;;;;;26.61;46.19;99137.88;4903078;29;20031;-87
2022/06/29 12:15:48;;;;;;;2.30;1.13;;;;;;;26.64;45.78;99137.59;4919697;29;20155;-86
2022/06/29 12:18:23;;;;;;;4.93;2.30;;;;;;;26.66;46.98;99140.97;4904878;29;20042;-86
2022/06/29 12:20:50;;;;;;;62.60;32.42;;;;;;;26.68;47.08;99128.28;4903455;29;20032;-85
2022/06/29 12:23:20;;;;;;;92.80;53.10;;;;;;;26.72;47.03;99124.38;4903035;29;20040;-85
2022/06/29 12:26:14;;;;;;;80.30;40.83;;;;;;;26.74;46.92;99117.06;4920423;29;20481;-88
2022/06/29 12:28:41;;;;;;;42.28;21.00;;;;;;;26.77;46.54;99116.78;4921923;29;20142;-85
2022/06/29 12:31:08;;;;;;;20.80;8.63;;;;;;;26.81;46.39;99118.19;4922995;29;20465;-87
2022/06/29 12:33:33;;;;;;;7.03;1.85;;;;;;;26.83;46.23;99111.84;4940845;29;20461;-87
2022/06/29 12:35:59;;;;;;;7.65;1.52;;;;;;;26.83;46.27;99103.81;4923100;29;20079;-84
2022/06/29 12:38:27;;;;;;;3.05;1.60;;;;;;;26.85;46.19;99113.41;4938444;29;20433;-85
2022/06/29 12:41:01;;;;;;;4.85;1.70;;;;;;;26.86;46.21;99103.50;4925562;29;20462;-84
2022/06/29 12:43:38;;;;;;;3.28;1.30;;;;;;;26.89;46.50;99092.53;4931621;29;20028;-86
2022/06/29 12:46:06;;;;;;;4.38;1.27;;;;;;;26.90;46.36;99099.56;4923913;29;20027;-85
2022/06/29 12:48:55;;;;;;;2.97;1.33;;;;;;;26.93;45.93;99094.81;4943607;29;20035;-86
2022/06/29 12:51:31;;;;;;;2.50;1.10;;;;;;;26.96;46.06;99088.34;4924161;29;20055;-87
2022/06/29 12:54:18;;;;;;;5.13;1.33;;;;;;;27.00;45.98;99092.44;4954675;29;20028;-86
2022/06/29 12:56:47;;;;;;;3.78;1.38;;;;;;;27.01;45.91;99083.41;4938340;29;20050;-88
2022/06/29 12:59:16;;;;;;;2.13;1.25;;;;;;;27.05;45.56;99090.16;4933945;29;20028;-86
2022/06/29 13:01:44;;;;;;;3.70;1.40;;;;;;;27.06;45.46;99097.22;4924342;29;20114;-85
2022/06/29 13:04:10;;;;;;;2.75;1.15;;;;;;;27.07;45.83;99087.34;4943049;29;20066;-87
2022/06/29 13:06:36;;;;;;;5.40;1.42;;;;;;;27.06;45.50;99083.81;4928103;29;20091;-86
2022/06/29 13:09:02;;;;;;;3.83;1.55;;;;;;;27.07;45.27;99084.69;4947623;29;20105;-87
2022/06/29 13:11:28;;;;;;;2.63;1.10;;;;;;;27.07;45.64;99077.47;4930817;29;20035;-87
2022/06/29 13:13:59;;;;;;;3.72;1.40;;;;;;;27.08;45.69;99071.13;4930138;29;20028;-90
2022/06/29 13:16:24;;;;;;;2.72;1.13;;;;;;;27.11;45.68;99070.00;4937636;29;20020;-87
2022/06/29 13:18:50;;;;;;;1.83;1.00;;;;;;;27.13;45.49;99068.03;4936559;29;20043;-88
2022/06/29 13:21:17;;;;;;;2.28;1.10;;;;;;;27.16;45.32;99062.38;4926165;29;20039;-86
2022/06/29 13:23:42;;;;;;;3.53;1.23;;;;;;;27.18;45.53;99054.22;4939000;29;20036;-87
2022/06/29 13:26:11;;;;;;;4.30;1.30;;;;;;;27.21;45.75;99053.91;4954439;28;20042;-90
2022/06/29 13:29:03;;;;;;;3.78;1.35;;;;;;;27.23;45.14;99049.25;4943175;29;20047;-88
2022/06/29 13:31:41;;;;;;;4.38;1.23;;;;;;;27.27;45.29;99053.34;4959982;28;20023;-89